createdAt,value
2023-04-08T00:00:13.650Z,1014.58
2023-04-08T00:01:13.641Z,1014.55
2023-04-08T00:02:13.742Z,1014.55
2023-04-08T00:03:13.920Z,1014.56
2023-04-08T00:04:13.796Z,1014.55
2023-04-08T00:05:13.585Z,1014.57
2023-04-08T00:06:13.597Z,1014.55
2023-04-08T00:07:13.718Z,1014.56
2023-04-08T00:08:13.609Z,1014.59
2023-04-08T00:09:13.572Z,1014.59
2023-04-08T00:10:13.531Z,1014.58
2023-04-08T00:11:13.535Z,1014.60
2023-04-08T00:12:13.536Z,1014.63
2023-04-08T00:13:13.513Z,1014.63
2023-04-08T00:14:13.530Z,1014.65
2023-04-08T00:15:13.517Z,1014.67
2023-04-08T00:16:13.508Z,1014.62
2023-04-08T00:17:13.510Z,1014.65
2023-04-08T00:18:13.467Z,1014.62
2023-04-08T00:19:13.451Z,1014.64
2023-04-08T00:20:13.477Z,1014.62
2023-04-08T00:21:13.437Z,1014.63
2023-04-08T00:22:13.418Z,1014.59
2023-04-08T00:23:13.429Z,1014.60
2023-04-08T00:24:13.399Z,1014.58
2023-04-08T00:25:13.407Z,1014.59
2023-04-08T00:26:13.378Z,1014.58
2023-04-08T00:27:13.356Z,1014.55
2023-04-08T00:28:13.395Z,1014.54
2023-04-08T00:29:13.339Z,1014.56
2023-04-08T00:30:13.341Z,1014.53
2023-04-08T00:31:13.356Z,1014.54
2023-04-08T00:32:13.327Z,1014.58
2023-04-08T00:33:13.371Z,1014.62
2023-04-08T00:34:13.257Z,1014.58
2023-04-08T00:35:13.305Z,1014.62
2023-04-08T00:36:13.263Z,1014.60
2023-04-08T00:37:13.233Z,1014.63
2023-04-08T00:38:13.217Z,1014.69
2023-04-08T00:39:13.209Z,1014.69
2023-04-08T00:40:13.203Z,1014.70
2023-04-08T00:41:13.286Z,1014.70
2023-04-08T00:42:13.156Z,1014.73
2023-04-08T00:43:13.158Z,1014.71
2023-04-08T00:44:13.177Z,1014.73
2023-04-08T00:45:13.158Z,1014.72
2023-04-08T00:46:13.154Z,1014.72
2023-04-08T00:47:13.159Z,1014.71
2023-04-08T00:48:13.107Z,1014.73
2023-04-08T00:49:13.107Z,1014.75
2023-04-08T00:50:13.092Z,1014.71
2023-04-08T00:51:13.162Z,1014.76
2023-04-08T00:52:13.068Z,1014.76
2023-04-08T00:53:13.078Z,1014.75
2023-04-08T00:54:13.066Z,1014.76
2023-04-08T00:55:13.026Z,1014.79
2023-04-08T00:56:13.053Z,1014.85
2023-04-08T00:57:12.976Z,1014.89
2023-04-08T00:58:12.975Z,1014.81
2023-04-08T00:59:12.953Z,1014.85
2023-04-08T01:00:12.949Z,1014.88
2023-04-08T01:01:12.990Z,1014.81
2023-04-08T01:02:13.198Z,1014.80
2023-04-08T01:03:13.056Z,1014.78
2023-04-08T01:04:12.972Z,1014.79
2023-04-08T01:05:12.887Z,1014.81
2023-04-08T01:06:12.900Z,1014.83
2023-04-08T01:07:12.879Z,1014.86
2023-04-08T01:08:12.856Z,1014.83
2023-04-08T01:09:12.859Z,1014.90
2023-04-08T01:10:12.853Z,1014.95
2023-04-08T01:11:12.844Z,1014.87
2023-04-08T01:12:12.820Z,1014.92
2023-04-08T01:13:12.799Z,1014.88
2023-04-08T01:14:12.795Z,1014.92
2023-04-08T01:15:12.781Z,1014.86
2023-04-08T01:16:12.881Z,1014.86
2023-04-08T01:17:12.757Z,1014.91
2023-04-08T01:18:12.778Z,1014.86
2023-04-08T01:19:12.726Z,1014.92
2023-04-08T01:20:12.726Z,1014.89
2023-04-08T01:21:12.751Z,1014.85
2023-04-08T01:22:12.702Z,1014.86
2023-04-08T01:23:12.680Z,1014.84
2023-04-08T01:24:12.683Z,1014.88
2023-04-08T01:25:12.672Z,1014.84
2023-04-08T01:26:12.691Z,1014.87
2023-04-08T01:27:12.638Z,1014.87
2023-04-08T01:28:12.638Z,1014.90
2023-04-08T01:29:12.625Z,1014.91
2023-04-08T01:30:12.619Z,1014.90
2023-04-08T01:31:12.649Z,1014.92
2023-04-08T01:32:12.609Z,1014.92
2023-04-08T01:33:12.585Z,1014.89
2023-04-08T01:34:12.564Z,1014.92
2023-04-08T01:35:12.559Z,1014.92
2023-04-08T01:36:12.566Z,1014.92
2023-04-08T01:37:12.533Z,1014.95
2023-04-08T01:38:12.554Z,1014.92
2023-04-08T01:39:12.508Z,1014.93
2023-04-08T01:40:12.517Z,1014.93
2023-04-08T01:41:12.515Z,1014.91
2023-04-08T01:42:12.489Z,1014.98
2023-04-08T01:43:12.466Z,1014.95
2023-04-08T01:44:12.462Z,1014.93
2023-04-08T01:45:12.450Z,1014.96
2023-04-08T01:46:12.485Z,1014.95
2023-04-08T01:47:12.441Z,1014.93
2023-04-08T01:48:12.418Z,1014.97
2023-04-08T01:49:12.407Z,1015.01
2023-04-08T01:50:12.410Z,1015.02
2023-04-08T01:51:12.406Z,1015.02
2023-04-08T01:52:12.376Z,1015.02
2023-04-08T01:53:12.392Z,1015.06
2023-04-08T01:54:12.368Z,1015.00
2023-04-08T01:55:12.346Z,1015.03
2023-04-08T01:56:12.361Z,1014.99
2023-04-08T01:57:12.336Z,1015.00
2023-04-08T01:58:12.317Z,1014.99
2023-04-08T01:59:12.303Z,1015.01
2023-04-08T02:00:12.305Z,1015.01
2023-04-08T02:01:12.300Z,1015.02
2023-04-08T02:02:12.327Z,1015.03
2023-04-08T02:03:12.443Z,1015.04
2023-04-08T02:04:12.278Z,1015.05
2023-04-08T02:05:12.234Z,1015.02
2023-04-08T02:06:12.302Z,1015.06
2023-04-08T02:07:12.227Z,1015.03
2023-04-08T02:08:12.221Z,1015.05
2023-04-08T02:09:12.236Z,1015.08
2023-04-08T02:10:12.222Z,1015.07
2023-04-08T02:11:12.251Z,1015.08
2023-04-08T02:12:12.182Z,1015.08
2023-04-08T02:13:12.183Z,1015.07
2023-04-08T02:14:12.139Z,1015.10
2023-04-08T02:15:12.172Z,1015.09
2023-04-08T02:16:12.190Z,1015.03
2023-04-08T02:17:12.110Z,1015.05
2023-04-08T02:18:12.170Z,1015.04
2023-04-08T02:19:12.147Z,1015.04
2023-04-08T02:20:12.090Z,1015.12
2023-04-08T02:21:12.104Z,1015.09
2023-04-08T02:22:12.063Z,1015.07
2023-04-08T02:23:12.082Z,1015.10
2023-04-08T02:24:12.042Z,1015.07
2023-04-08T02:25:12.030Z,1015.09
2023-04-08T02:26:12.032Z,1015.08
2023-04-08T02:27:12.015Z,1015.06
2023-04-08T02:28:11.994Z,1015.08
2023-04-08T02:29:11.999Z,1015.08
2023-04-08T02:30:11.977Z,1015.12
2023-04-08T02:31:12.056Z,1015.11
2023-04-08T02:32:11.963Z,1015.14
2023-04-08T02:33:12.000Z,1015.19
2023-04-08T02:34:11.931Z,1015.13
2023-04-08T02:35:11.963Z,1015.13
2023-04-08T02:36:11.957Z,1015.18
2023-04-08T02:37:11.892Z,1015.21
2023-04-08T02:38:11.879Z,1015.24
2023-04-08T02:39:11.891Z,1015.24
2023-04-08T02:40:11.855Z,1015.24
2023-04-08T02:41:11.924Z,1015.25
2023-04-08T02:42:12.056Z,1015.25
2023-04-08T02:43:11.818Z,1015.21
2023-04-08T02:44:11.814Z,1015.24
2023-04-08T02:45:11.818Z,1015.21
2023-04-08T02:46:11.893Z,1015.21
2023-04-08T02:47:11.800Z,1015.26
2023-04-08T02:48:11.774Z,1015.23
2023-04-08T02:49:11.795Z,1015.24
2023-04-08T02:50:11.738Z,1015.21
2023-04-08T02:51:11.797Z,1015.22
2023-04-08T02:52:11.750Z,1015.25
2023-04-08T02:53:11.729Z,1015.26
2023-04-08T02:54:11.719Z,1015.26
2023-04-08T02:55:11.684Z,1015.31
2023-04-08T02:56:11.738Z,1015.37
2023-04-08T02:57:11.671Z,1015.35
2023-04-08T02:58:11.645Z,1015.37
2023-04-08T02:59:11.662Z,1015.32
2023-04-08T03:00:11.662Z,1015.36
2023-04-08T03:01:11.664Z,1015.38
2023-04-08T03:02:11.684Z,1015.40
2023-04-08T03:03:11.849Z,1015.32
2023-04-08T03:04:11.588Z,1015.30
2023-04-08T03:05:11.579Z,1015.34
2023-04-08T03:06:11.608Z,1015.31
2023-04-08T03:07:11.602Z,1015.33
2023-04-08T03:08:11.558Z,1015.34
2023-04-08T03:09:11.545Z,1015.33
2023-04-08T03:10:12.398Z,1015.33
2023-04-08T03:11:11.544Z,1015.34
2023-04-08T03:12:11.509Z,1015.32
2023-04-08T03:13:11.518Z,1015.38
2023-04-08T03:14:11.510Z,1015.34
2023-04-08T03:15:11.473Z,1015.36
2023-04-08T03:16:11.501Z,1015.39
2023-04-08T03:17:11.469Z,1015.38
2023-04-08T03:18:11.434Z,1015.40
2023-04-08T03:19:11.423Z,1015.40
2023-04-08T03:20:11.429Z,1015.39
2023-04-08T03:21:11.466Z,1015.40
2023-04-08T03:22:11.406Z,1015.37
2023-04-08T03:23:11.371Z,1015.37
2023-04-08T03:24:11.349Z,1015.34
2023-04-08T03:25:11.367Z,1015.38
2023-04-08T03:26:11.372Z,1015.38
2023-04-08T03:27:11.325Z,1015.38
2023-04-08T03:28:11.401Z,1015.36
2023-04-08T03:29:11.316Z,1015.39
2023-04-08T03:30:11.292Z,1015.39
2023-04-08T03:31:11.347Z,1015.36
2023-04-08T03:32:11.407Z,1015.40
2023-04-08T03:33:11.360Z,1015.35
2023-04-08T03:34:11.292Z,1015.37
2023-04-08T03:35:11.265Z,1015.36
2023-04-08T03:36:11.286Z,1015.34
2023-04-08T03:37:11.242Z,1015.36
2023-04-08T03:38:11.217Z,1015.36
2023-04-08T03:39:11.249Z,1015.39
2023-04-08T03:40:11.182Z,1015.40
2023-04-08T03:41:11.197Z,1015.34
2023-04-08T03:42:11.166Z,1015.37
2023-04-08T03:43:11.142Z,1015.37
2023-04-08T03:44:11.149Z,1015.39
2023-04-08T03:45:11.155Z,1015.41
2023-04-08T03:46:11.226Z,1015.37
2023-04-08T03:47:11.127Z,1015.37
2023-04-08T03:48:11.088Z,1015.42
2023-04-08T03:49:11.100Z,1015.41
2023-04-08T03:50:11.061Z,1015.38
2023-04-08T03:51:11.122Z,1015.44
2023-04-08T03:52:11.040Z,1015.42
2023-04-08T03:53:11.025Z,1015.44
2023-04-08T03:54:11.030Z,1015.47
2023-04-08T03:55:11.001Z,1015.41
2023-04-08T03:56:11.056Z,1015.41
2023-04-08T03:57:11.000Z,1015.42
2023-04-08T03:58:11.012Z,1015.41
2023-04-08T03:59:10.974Z,1015.45
2023-04-08T04:00:10.964Z,1015.40
2023-04-08T04:01:10.978Z,1015.42
2023-04-08T04:02:10.996Z,1015.41
2023-04-08T04:03:11.034Z,1015.40
2023-04-08T04:04:11.200Z,1015.42
2023-04-08T04:05:10.925Z,1015.38
2023-04-08T04:06:10.944Z,1015.40
2023-04-08T04:07:10.904Z,1015.38
2023-04-08T04:08:10.865Z,1015.43
2023-04-08T04:09:10.858Z,1015.45
2023-04-08T04:10:10.878Z,1015.42
2023-04-08T04:11:10.867Z,1015.42
2023-04-08T04:12:10.840Z,1015.38
2023-04-08T04:13:10.794Z,1015.40
2023-04-08T04:14:10.851Z,1015.40
2023-04-08T04:15:10.809Z,1015.34
2023-04-08T04:16:10.852Z,1015.40
2023-04-08T04:17:10.761Z,1015.40
2023-04-08T04:18:10.869Z,1015.42
2023-04-08T04:19:10.791Z,1015.42
2023-04-08T04:20:10.813Z,1015.46
2023-04-08T04:21:10.757Z,1015.44
2023-04-08T04:22:10.784Z,1015.47
2023-04-08T04:23:10.697Z,1015.46
2023-04-08T04:24:10.688Z,1015.48
2023-04-08T04:25:10.683Z,1015.48
2023-04-08T04:26:10.701Z,1015.48
2023-04-08T04:27:10.684Z,1015.50
2023-04-08T04:28:10.641Z,1015.51
2023-04-08T04:29:10.689Z,1015.54
2023-04-08T04:30:10.644Z,1015.53
2023-04-08T04:31:10.906Z,1015.53
2023-04-08T04:32:10.583Z,1015.52
2023-04-08T04:33:10.571Z,1015.54
2023-04-08T04:34:10.561Z,1015.57
2023-04-08T04:35:10.620Z,1015.56
2023-04-08T04:36:10.588Z,1015.56
2023-04-08T04:37:10.545Z,1015.59
2023-04-08T04:38:10.560Z,1015.52
2023-04-08T04:39:10.512Z,1015.58
2023-04-08T04:40:10.536Z,1015.60
2023-04-08T04:41:10.511Z,1015.60
2023-04-08T04:42:10.509Z,1015.54
2023-04-08T04:43:10.480Z,1015.52
2023-04-08T04:44:10.460Z,1015.50
2023-04-08T04:45:10.453Z,1015.50
2023-04-08T04:46:10.473Z,1015.55
2023-04-08T04:47:10.408Z,1015.53
2023-04-08T04:48:10.402Z,1015.60
2023-04-08T04:49:10.384Z,1015.58
2023-04-08T04:50:10.380Z,1015.64
2023-04-08T04:51:10.390Z,1015.60
2023-04-08T04:52:10.376Z,1015.64
2023-04-08T04:53:10.347Z,1015.67
2023-04-08T04:54:10.319Z,1015.75
2023-04-08T04:55:10.324Z,1015.73
2023-04-08T04:56:10.327Z,1015.72
2023-04-08T04:57:10.304Z,1015.72
2023-04-08T04:58:10.276Z,1015.72
2023-04-08T04:59:10.273Z,1015.71
2023-04-08T05:00:10.266Z,1015.76
2023-04-08T05:01:10.300Z,1015.77
2023-04-08T05:02:10.333Z,1015.75
2023-04-08T05:03:10.449Z,1015.76
2023-04-08T05:04:10.213Z,1015.75
2023-04-08T05:05:10.241Z,1015.78
2023-04-08T05:06:10.215Z,1015.81
2023-04-08T05:07:10.275Z,1015.81
2023-04-08T05:08:10.167Z,1015.77
2023-04-08T05:09:10.169Z,1015.79
2023-04-08T05:10:10.154Z,1015.86
2023-04-08T05:11:10.171Z,1015.85
2023-04-08T05:12:10.134Z,1015.88
2023-04-08T05:13:10.132Z,1015.81
2023-04-08T05:14:10.160Z,1015.85
2023-04-08T05:15:10.188Z,1015.82
2023-04-08T05:16:10.310Z,1015.83
2023-04-08T05:17:10.078Z,1015.81
2023-04-08T05:18:10.148Z,1015.81
2023-04-08T05:19:10.060Z,1015.82
2023-04-08T05:20:10.044Z,1015.83
2023-04-08T05:21:10.102Z,1015.83
2023-04-08T05:22:10.025Z,1015.86
2023-04-08T05:23:10.016Z,1015.90
2023-04-08T05:24:10.011Z,1015.89
2023-04-08T05:25:09.996Z,1015.90
2023-04-08T05:26:10.001Z,1015.91
2023-04-08T05:27:10.010Z,1015.94
2023-04-08T05:28:09.958Z,1015.96
2023-04-08T05:29:09.946Z,1015.94
2023-04-08T05:30:09.948Z,1015.97
2023-04-08T05:31:09.995Z,1015.92
2023-04-08T05:32:09.926Z,1016.03
2023-04-08T05:33:09.944Z,1016.06
2023-04-08T05:34:09.893Z,1016.06
2023-04-08T05:35:09.913Z,1016.03
2023-04-08T05:36:09.899Z,1016.02
2023-04-08T05:37:09.865Z,1015.99
2023-04-08T05:38:09.847Z,1016.01
2023-04-08T05:39:09.870Z,1015.98
2023-04-08T05:40:09.877Z,1016.02
2023-04-08T05:41:09.835Z,1016.01
2023-04-08T05:42:09.829Z,1016.04
2023-04-08T05:43:09.791Z,1016.10
2023-04-08T05:44:09.790Z,1016.06
2023-04-08T05:45:09.773Z,1016.08
2023-04-08T05:46:09.788Z,1016.17
2023-04-08T05:47:09.898Z,1016.12
2023-04-08T05:48:09.764Z,1016.12
2023-04-08T05:49:09.736Z,1016.18
2023-04-08T05:50:09.717Z,1016.18
2023-04-08T05:51:09.751Z,1016.21
2023-04-08T05:52:09.695Z,1016.20
2023-04-08T05:53:09.689Z,1016.19
2023-04-08T05:54:09.674Z,1016.24
2023-04-08T05:55:09.660Z,1016.20
2023-04-08T05:56:09.660Z,1016.25
2023-04-08T05:57:10.517Z,1016.24
2023-04-08T05:58:09.625Z,1016.23
2023-04-08T05:59:09.620Z,1016.22
2023-04-08T06:00:09.637Z,1016.26
2023-04-08T06:01:09.604Z,1016.27
2023-04-08T06:02:09.634Z,1016.30
2023-04-08T06:03:09.665Z,1016.27
2023-04-08T06:04:09.676Z,1016.27
2023-04-08T06:05:09.544Z,1016.26
2023-04-08T06:06:09.557Z,1016.29
2023-04-08T06:07:09.532Z,1016.34
2023-04-08T06:08:09.496Z,1016.35
2023-04-08T06:09:09.534Z,1016.35
2023-04-08T06:10:09.495Z,1016.38
2023-04-08T06:11:09.493Z,1016.42
2023-04-08T06:12:09.453Z,1016.38
2023-04-08T06:13:09.525Z,1016.31
2023-04-08T06:14:09.438Z,1016.31
2023-04-08T06:15:09.436Z,1016.29
2023-04-08T06:16:09.455Z,1016.34
2023-04-08T06:17:09.502Z,1016.34
2023-04-08T06:18:09.390Z,1016.29
2023-04-08T06:19:09.371Z,1016.34
2023-04-08T06:20:09.382Z,1016.36
2023-04-08T06:21:09.437Z,1016.41
2023-04-08T06:22:09.339Z,1016.45
2023-04-08T06:23:09.370Z,1016.48
2023-04-08T06:24:09.342Z,1016.54
2023-04-08T06:25:09.310Z,1016.53
2023-04-08T06:26:09.331Z,1016.57
2023-04-08T06:27:09.278Z,1016.57
2023-04-08T06:28:09.277Z,1016.57
2023-04-08T06:29:09.266Z,1016.59
2023-04-08T06:30:09.249Z,1016.51
2023-04-08T06:31:09.254Z,1016.57
2023-04-08T06:32:09.264Z,1016.57
2023-04-08T06:33:09.264Z,1016.57
2023-04-08T06:34:09.211Z,1016.57
2023-04-08T06:35:09.197Z,1016.55
2023-04-08T06:36:09.255Z,1016.57
2023-04-08T06:37:09.180Z,1016.50
2023-04-08T06:38:09.165Z,1016.53
2023-04-08T06:39:09.139Z,1016.51
2023-04-08T06:40:09.144Z,1016.55
2023-04-08T06:41:09.167Z,1016.55
2023-04-08T06:42:09.115Z,1016.54
2023-04-08T06:43:09.095Z,1016.56
2023-04-08T06:44:09.089Z,1016.58
2023-04-08T06:45:09.076Z,1016.62
2023-04-08T06:46:09.327Z,1016.67
2023-04-08T06:47:09.054Z,1016.66
2023-04-08T06:48:09.050Z,1016.61
2023-04-08T06:49:09.029Z,1016.68
2023-04-08T06:50:09.039Z,1016.64
2023-04-08T06:51:09.041Z,1016.65
2023-04-08T06:52:09.004Z,1016.68
2023-04-08T06:53:08.988Z,1016.70
2023-04-08T06:54:08.981Z,1016.73
2023-04-08T06:55:08.966Z,1016.74
2023-04-08T06:56:08.978Z,1016.73
2023-04-08T06:57:08.949Z,1016.71
2023-04-08T06:58:08.942Z,1016.75
2023-04-08T06:59:09.268Z,1016.79
2023-04-08T07:00:08.915Z,1016.77
2023-04-08T07:01:08.964Z,1016.71
2023-04-08T07:02:08.929Z,1016.71
2023-04-08T07:03:08.934Z,1016.74
2023-04-08T07:04:08.889Z,1016.78
2023-04-08T07:05:08.855Z,1016.83
2023-04-08T07:06:08.881Z,1016.80
2023-04-08T07:07:08.829Z,1016.76
2023-04-08T07:08:08.830Z,1016.81
2023-04-08T07:09:08.842Z,1016.80
2023-04-08T07:10:10.951Z,1016.81
2023-04-08T07:11:08.796Z,1016.78
2023-04-08T07:12:08.779Z,1016.79
2023-04-08T07:13:08.775Z,1016.87
2023-04-08T07:14:08.757Z,1016.85
2023-04-08T07:15:08.762Z,1016.91
2023-04-08T07:16:08.751Z,1016.90
2023-04-08T07:17:08.781Z,1016.94
2023-04-08T07:18:08.723Z,1016.88
2023-04-08T07:19:08.698Z,1016.85
2023-04-08T07:20:08.698Z,1016.91
2023-04-08T07:21:08.688Z,1016.90
2023-04-08T07:22:08.667Z,1016.91
2023-04-08T07:23:08.654Z,1016.94
2023-04-08T07:24:08.653Z,1016.99
2023-04-08T07:25:08.628Z,1017.02
2023-04-08T07:26:08.640Z,1017.06
2023-04-08T07:27:08.602Z,1017.03
2023-04-08T07:28:08.597Z,1016.97
2023-04-08T07:29:08.586Z,1017.02
2023-04-08T07:30:08.580Z,1017.03
2023-04-08T07:31:08.652Z,1017.04
2023-04-08T07:32:08.555Z,1017.08
2023-04-08T07:33:08.680Z,1017.10
2023-04-08T07:34:08.519Z,1017.05
2023-04-08T07:35:08.521Z,1017.05
2023-04-08T07:36:08.518Z,1017.10
2023-04-08T07:37:08.492Z,1017.12
2023-04-08T07:38:08.532Z,1017.13
2023-04-08T07:39:08.470Z,1017.13
2023-04-08T07:40:08.457Z,1017.14
2023-04-08T07:41:08.486Z,1017.06
2023-04-08T07:42:08.435Z,1017.05
2023-04-08T07:43:08.425Z,1017.06
2023-04-08T07:44:08.414Z,1017.08
2023-04-08T07:45:08.401Z,1017.09
2023-04-08T07:46:08.415Z,1017.11
2023-04-08T07:47:08.373Z,1017.13
2023-04-08T07:48:08.413Z,1017.16
2023-04-08T07:49:08.353Z,1017.21
2023-04-08T07:50:08.350Z,1017.14
2023-04-08T07:51:10.893Z,1017.15
2023-04-08T07:52:08.326Z,1017.12
2023-04-08T07:53:08.311Z,1017.19
2023-04-08T07:54:08.335Z,1017.13
2023-04-08T07:55:08.282Z,1017.14
2023-04-08T07:56:08.340Z,1017.10
2023-04-08T07:57:08.265Z,1017.10
2023-04-08T07:58:08.261Z,1017.16
2023-04-08T07:59:08.234Z,1017.14
2023-04-08T08:00:08.237Z,1017.15
2023-04-08T08:01:08.264Z,1017.17
2023-04-08T08:02:08.258Z,1017.19
2023-04-08T08:03:08.317Z,1017.18
2023-04-08T08:04:08.257Z,1017.20
2023-04-08T08:05:08.234Z,1017.28
2023-04-08T08:06:08.181Z,1017.28
2023-04-08T08:07:08.148Z,1017.25
2023-04-08T08:08:08.142Z,1017.23
2023-04-08T08:09:08.143Z,1017.28
2023-04-08T08:10:08.126Z,1017.20
2023-04-08T08:11:08.129Z,1017.24
2023-04-08T08:12:08.116Z,1017.26
2023-04-08T08:13:08.107Z,1017.33
2023-04-08T08:14:08.093Z,1017.37
2023-04-08T08:15:08.066Z,1017.36
2023-04-08T08:16:08.125Z,1017.38
2023-04-08T08:17:08.034Z,1017.34
2023-04-08T08:18:08.081Z,1017.31
2023-04-08T08:19:08.011Z,1017.36
2023-04-08T08:20:08.008Z,1017.42
2023-04-08T08:21:08.053Z,1017.41
2023-04-08T08:22:07.998Z,1017.45
2023-04-08T08:23:07.983Z,1017.43
2023-04-08T08:24:07.972Z,1017.43
2023-04-08T08:25:07.953Z,1017.45
2023-04-08T08:26:07.958Z,1017.47
2023-04-08T08:27:07.939Z,1017.54
2023-04-08T08:28:07.917Z,1017.54
2023-04-08T08:29:07.900Z,1017.56
2023-04-08T08:30:07.904Z,1017.60
2023-04-08T08:31:07.949Z,1017.55
2023-04-08T08:32:07.872Z,1017.57
2023-04-08T08:33:08.039Z,1017.54
2023-04-08T08:34:07.847Z,1017.56
2023-04-08T08:35:07.843Z,1017.57
2023-04-08T08:36:07.892Z,1017.56
2023-04-08T08:37:07.810Z,1017.57
2023-04-08T08:38:07.800Z,1017.55
2023-04-08T08:39:07.793Z,1017.62
2023-04-08T08:40:07.796Z,1017.60
2023-04-08T08:41:07.842Z,1017.62
2023-04-08T08:42:07.759Z,1017.65
2023-04-08T08:43:07.752Z,1017.59
2023-04-08T08:44:07.740Z,1017.60
2023-04-08T08:45:07.728Z,1017.59
2023-04-08T08:46:08.122Z,1017.61
2023-04-08T08:47:07.708Z,1017.67
2023-04-08T08:48:07.703Z,1017.68
2023-04-08T08:49:07.700Z,1017.69
2023-04-08T08:50:07.684Z,1017.72
2023-04-08T08:51:07.648Z,1017.73
2023-04-08T08:52:07.670Z,1017.71
2023-04-08T08:53:07.631Z,1017.68
2023-04-08T08:54:07.635Z,1017.67
2023-04-08T08:55:21.481Z,1017.68
2023-04-08T08:56:17.798Z,1017.68
2023-04-08T08:57:07.629Z,1017.68
2023-04-08T08:58:07.583Z,1017.69
2023-04-08T08:59:07.591Z,1017.67
2023-04-08T09:00:07.552Z,1017.72
2023-04-08T09:01:07.539Z,1017.69
2023-04-08T09:02:07.636Z,1017.69
2023-04-08T09:03:07.712Z,1017.70
2023-04-08T09:04:07.647Z,1017.78
2023-04-08T09:05:07.626Z,1017.73
2023-04-08T09:06:07.497Z,1017.72
2023-04-08T09:07:07.486Z,1017.76
2023-04-08T09:08:07.467Z,1017.76
2023-04-08T09:09:07.469Z,1017.77
2023-04-08T09:10:07.438Z,1017.81
2023-04-08T09:11:07.456Z,1017.83
2023-04-08T09:12:07.418Z,1017.84
2023-04-08T09:13:07.436Z,1017.81
2023-04-08T09:14:07.397Z,1017.89
2023-04-08T09:15:07.384Z,1017.92
2023-04-08T09:16:07.409Z,1017.85
2023-04-08T09:17:07.361Z,1017.87
2023-04-08T09:18:07.397Z,1017.83
2023-04-08T09:19:07.342Z,1017.84
2023-04-08T09:20:07.325Z,1017.82
2023-04-08T09:21:07.303Z,1017.77
2023-04-08T09:22:07.305Z,1017.81
2023-04-08T09:23:07.283Z,1017.87
2023-04-08T09:24:07.301Z,1017.81
2023-04-08T09:25:07.259Z,1017.83
2023-04-08T09:26:07.255Z,1017.81
2023-04-08T09:27:07.244Z,1017.80
2023-04-08T09:28:07.242Z,1017.81
2023-04-08T09:29:24.140Z,1017.80
2023-04-08T09:30:07.264Z,1017.82
2023-04-08T09:31:07.195Z,1017.85
2023-04-08T09:32:07.245Z,1017.79
2023-04-08T09:33:07.363Z,1017.81
2023-04-08T09:34:07.172Z,1017.82
2023-04-08T09:35:07.162Z,1017.80
2023-04-08T09:36:07.225Z,1017.84
2023-04-08T09:37:07.303Z,1017.80
2023-04-08T09:38:07.129Z,1017.80
2023-04-08T09:39:07.113Z,1017.83
2023-04-08T09:40:07.100Z,1017.76
2023-04-08T09:41:07.110Z,1017.77
2023-04-08T09:42:07.100Z,1017.73
2023-04-08T09:43:07.085Z,1017.78
2023-04-08T09:44:07.083Z,1017.76
2023-04-08T09:45:07.049Z,1017.75
2023-04-08T09:46:07.073Z,1017.76
2023-04-08T09:47:07.049Z,1017.80
2023-04-08T09:48:07.069Z,1017.85
2023-04-08T09:49:07.010Z,1017.84
2023-04-08T09:50:06.983Z,1017.86
2023-04-08T09:51:06.978Z,1017.81
2023-04-08T09:52:06.972Z,1017.83
2023-04-08T09:53:06.984Z,1017.78
2023-04-08T09:54:06.943Z,1017.78
2023-04-08T09:55:06.945Z,1017.84
2023-04-08T09:56:06.954Z,1017.85
2023-04-08T09:57:06.917Z,1017.86
2023-04-08T09:58:06.927Z,1017.83
2023-04-08T09:59:06.966Z,1017.86
2023-04-08T10:00:06.894Z,1017.85
2023-04-08T10:01:06.921Z,1017.86
2023-04-08T10:02:07.021Z,1017.90
2023-04-08T10:03:07.121Z,1017.94
2023-04-08T10:04:06.904Z,1017.89
2023-04-08T10:05:08.273Z,1017.91
2023-04-08T10:06:06.810Z,1017.95
2023-04-08T10:07:06.793Z,1017.94
2023-04-08T10:08:06.788Z,1017.92
2023-04-08T10:09:06.773Z,1017.92
2023-04-08T10:10:06.803Z,1017.89
2023-04-08T10:11:06.765Z,1017.83
2023-04-08T10:12:06.747Z,1017.84
2023-04-08T10:13:06.764Z,1017.85
2023-04-08T10:14:06.749Z,1017.85
2023-04-08T10:15:06.738Z,1017.88
2023-04-08T10:16:07.619Z,1017.81
2023-04-08T10:17:06.879Z,1017.81
2023-04-08T10:18:06.713Z,1017.80
2023-04-08T10:19:06.673Z,1017.84
2023-04-08T10:20:06.668Z,1017.82
2023-04-08T10:21:06.662Z,1017.85
2023-04-08T10:22:07.958Z,1017.81
2023-04-08T10:23:06.628Z,1017.78
2023-04-08T10:24:06.632Z,1017.79
2023-04-08T10:25:06.601Z,1017.83
2023-04-08T10:26:06.616Z,1017.81
2023-04-08T10:27:06.599Z,1017.84
2023-04-08T10:28:07.555Z,1017.88
2023-04-08T10:29:06.540Z,1017.87
2023-04-08T10:30:06.538Z,1017.86
2023-04-08T10:31:06.522Z,1017.91
2023-04-08T10:32:06.601Z,1017.90
2023-04-08T10:33:06.581Z,1017.92
2023-04-08T10:34:06.504Z,1017.92
2023-04-08T10:35:06.469Z,1017.93
2023-04-08T10:36:06.531Z,1017.94
2023-04-08T10:37:06.533Z,1018.00
2023-04-08T10:38:06.441Z,1017.94
2023-04-08T10:39:06.440Z,1017.93
2023-04-08T10:40:06.419Z,1017.96
2023-04-08T10:41:06.405Z,1017.97
2023-04-08T10:42:06.423Z,1018.00
2023-04-08T10:43:06.385Z,1017.98
2023-04-08T10:44:06.367Z,1017.95
2023-04-08T10:45:06.372Z,1017.95
2023-04-08T10:46:06.390Z,1017.93
2023-04-08T10:47:06.357Z,1017.94
2023-04-08T10:48:06.318Z,1017.96
2023-04-08T10:49:06.310Z,1017.92
2023-04-08T10:50:06.303Z,1017.94
2023-04-08T10:51:06.325Z,1017.98
2023-04-08T10:52:06.298Z,1017.90
2023-04-08T10:53:06.266Z,1017.93
2023-04-08T10:54:06.248Z,1017.89
2023-04-08T10:55:06.248Z,1017.90
2023-04-08T10:56:06.268Z,1017.86
2023-04-08T10:57:06.238Z,1017.88
2023-04-08T10:58:06.203Z,1017.88
2023-04-08T10:59:06.199Z,1017.86
2023-04-08T11:00:06.199Z,1017.85
2023-04-08T11:01:06.232Z,1017.88
2023-04-08T11:02:06.265Z,1017.86
2023-04-08T11:03:06.288Z,1017.87
2023-04-08T11:04:06.311Z,1017.88
2023-04-08T11:05:06.132Z,1017.91
2023-04-08T11:06:06.124Z,1017.86
2023-04-08T11:07:06.127Z,1017.89
2023-04-08T11:08:06.100Z,1017.90
2023-04-08T11:09:06.087Z,1017.86
2023-04-08T11:10:06.081Z,1017.88
2023-04-08T11:11:06.070Z,1017.84
2023-04-08T11:12:06.062Z,1017.84
2023-04-08T11:13:06.037Z,1017.81
2023-04-08T11:14:06.036Z,1017.84
2023-04-08T11:15:06.043Z,1017.85
2023-04-08T11:16:16.966Z,1017.75
2023-04-08T11:17:06.048Z,1017.84
2023-04-08T11:18:06.024Z,1017.79
2023-04-08T11:19:05.999Z,1017.81
2023-04-08T11:20:05.967Z,1017.82
2023-04-08T11:21:05.977Z,1017.83
2023-04-08T11:22:05.963Z,1017.78
2023-04-08T11:23:05.937Z,1017.79
2023-04-08T11:24:05.913Z,1017.83
2023-04-08T11:25:05.912Z,1017.79
2023-04-08T11:26:06.400Z,1017.83
2023-04-08T11:27:05.913Z,1017.76
2023-04-08T11:28:05.875Z,1017.78
2023-04-08T11:29:05.877Z,1017.72
2023-04-08T11:30:05.851Z,1017.74
2023-04-08T11:31:06.054Z,1017.77
2023-04-08T11:32:05.827Z,1017.76
2023-04-08T11:33:05.858Z,1017.78
2023-04-08T11:34:05.799Z,1017.78
2023-04-08T11:35:05.800Z,1017.81
2023-04-08T11:36:05.876Z,1017.78
2023-04-08T11:37:05.769Z,1017.78
2023-04-08T11:38:05.797Z,1017.78
2023-04-08T11:39:05.746Z,1017.75
2023-04-08T11:40:05.746Z,1017.75
2023-04-08T11:41:05.724Z,1017.72
2023-04-08T11:42:05.707Z,1017.76
2023-04-08T11:43:05.699Z,1017.77
2023-04-08T11:44:05.706Z,1017.78
2023-04-08T11:45:05.677Z,1017.76
2023-04-08T11:46:05.681Z,1017.80
2023-04-08T11:47:05.661Z,1017.80
2023-04-08T11:48:05.670Z,1017.80
2023-04-08T11:49:05.840Z,1017.83
2023-04-08T11:50:05.629Z,1017.83
2023-04-08T11:51:05.608Z,1017.76
2023-04-08T11:52:05.591Z,1017.81
2023-04-08T11:53:05.586Z,1017.78
2023-04-08T11:54:05.573Z,1017.84
2023-04-08T11:55:05.582Z,1017.80
2023-04-08T11:56:05.554Z,1017.73
2023-04-08T11:57:05.550Z,1017.69
2023-04-08T11:58:05.530Z,1017.67
2023-04-08T11:59:05.525Z,1017.76
2023-04-08T12:00:05.530Z,1017.76
2023-04-08T12:01:05.496Z,1017.75
2023-04-08T12:02:05.524Z,1017.83
2023-04-08T12:03:05.542Z,1017.79
2023-04-08T12:04:05.524Z,1017.81
2023-04-08T12:05:05.511Z,1017.83